createdAt,value
2023-02-13T00:03:56.921Z,11.23
2023-02-13T00:09:17.433Z,14.75
2023-02-13T00:14:39.792Z,14.55
2023-02-13T00:20:00.394Z,10.05
2023-02-13T00:25:21.630Z,11.98
2023-02-13T00:30:42.351Z,12.35
2023-02-13T00:36:12.933Z,12.02
2023-02-13T00:41:33.831Z,10.43
2023-02-13T00:46:54.651Z,12.80
2023-02-13T00:52:15.187Z,10.02
2023-02-13T00:57:37.937Z,9.18
2023-02-13T01:02:58.544Z,10.02
2023-02-13T01:08:20.768Z,12.82
2023-02-13T01:13:41.568Z,11.38
2023-02-13T01:19:02.065Z,11.75
2023-02-13T01:24:25.389Z,12.98
2023-02-13T01:29:45.988Z,12.82
2023-02-13T01:35:07.803Z,9.95
2023-02-13T01:40:30.065Z,11.07
2023-02-13T01:45:56.327Z,14.05
2023-02-13T01:51:23.468Z,12.82
2023-02-13T01:56:48.675Z,9.00
2023-02-13T02:02:09.874Z,8.15
2023-02-13T02:07:31.653Z,14.95
2023-02-13T02:13:08.470Z,13.98
2023-02-13T02:18:31.238Z,11.07
2023-02-13T02:24:43.869Z,16.60
2023-02-13T02:30:17.656Z,21.63
2023-02-13T02:35:56.426Z,18.38
2023-02-13T02:41:45.556Z,16.65
2023-02-13T02:47:35.809Z,11.30
2023-02-13T02:53:22.041Z,13.15
2023-02-13T02:59:26.303Z,12.18
2023-02-13T03:05:10.765Z,9.82
2023-02-13T03:10:53.367Z,11.10
2023-02-13T03:16:37.918Z,15.23
2023-02-13T03:22:28.653Z,12.68
2023-02-13T03:28:40.818Z,11.23
2023-02-13T03:39:43.477Z,13.93
2023-02-13T03:45:47.789Z,17.88
2023-02-13T03:51:12.382Z,12.75
2023-02-13T03:56:54.312Z,13.77
2023-02-13T04:02:21.533Z,14.93
2023-02-13T04:07:42.169Z,12.70
2023-02-13T04:13:20.873Z,18.63
2023-02-13T04:18:42.853Z,14.57
2023-02-13T04:24:04.600Z,13.18
2023-02-13T04:29:27.384Z,12.45
2023-02-13T04:34:48.157Z,14.55
2023-02-13T04:40:09.677Z,15.40
2023-02-13T04:45:30.441Z,15.00
2023-02-13T04:50:51.217Z,15.40
2023-02-13T04:56:11.939Z,11.60
2023-02-13T05:01:32.768Z,13.65
2023-02-13T05:06:53.282Z,15.18
2023-02-13T05:12:14.050Z,12.45
2023-02-13T05:17:34.769Z,12.93
2023-02-13T05:23:13.852Z,12.07
2023-02-13T05:28:52.987Z,10.32
2023-02-13T05:34:14.008Z,12.57
2023-02-13T05:39:34.903Z,13.25
2023-02-13T05:44:55.499Z,14.55
2023-02-13T05:50:16.478Z,13.50
2023-02-13T05:55:38.752Z,13.73
2023-02-13T06:01:00.572Z,17.38
2023-02-13T06:06:22.796Z,11.90
2023-02-13T06:11:43.553Z,11.70
2023-02-13T06:17:04.332Z,11.23
2023-02-13T06:22:25.104Z,16.00
2023-02-13T06:27:46.717Z,13.93
2023-02-13T06:33:07.762Z,11.18
2023-02-13T06:38:28.736Z,13.02
2023-02-13T06:43:49.376Z,11.38
2023-02-13T06:49:10.331Z,13.57
2023-02-13T06:54:46.246Z,13.50
2023-02-13T07:00:08.749Z,11.20
2023-02-13T07:05:30.218Z,12.60
2023-02-13T07:10:51.130Z,14.77
2023-02-13T07:16:11.790Z,14.32
2023-02-13T07:21:32.334Z,14.63
2023-02-13T07:26:53.017Z,17.80
2023-02-13T07:32:13.665Z,13.75
2023-02-13T07:37:34.573Z,14.52
2023-02-13T07:42:56.023Z,14.65
2023-02-13T07:48:17.079Z,12.00
2023-02-13T07:53:37.791Z,14.73
2023-02-13T07:58:58.725Z,16.75
2023-02-13T08:04:19.303Z,15.32
2023-02-13T08:09:58.496Z,15.13
2023-02-13T08:15:19.499Z,13.40
2023-02-13T08:20:40.372Z,15.68
2023-02-13T08:26:02.090Z,16.38
2023-02-13T08:31:23.470Z,15.50
2023-02-13T08:36:44.280Z,14.65
2023-02-13T08:42:04.989Z,13.07
2023-02-13T08:47:25.718Z,14.45
2023-02-13T08:52:46.637Z,15.45
2023-02-13T08:58:07.153Z,18.15
2023-02-13T09:03:27.895Z,11.98
2023-02-13T09:08:48.486Z,14.15
2023-02-13T09:14:09.320Z,15.10
2023-02-13T09:19:29.925Z,15.38
2023-02-13T09:24:50.740Z,14.68
2023-02-13T09:30:13.122Z,10.18
2023-02-13T09:35:33.921Z,14.57
2023-02-13T09:40:59.868Z,10.65
2023-02-13T09:46:27.038Z,10.05
2023-02-13T09:51:55.786Z,8.98
2023-02-13T09:57:25.877Z,10.23
2023-02-13T10:02:53.479Z,6.88
2023-02-13T10:08:29.658Z,8.40
2023-02-13T10:13:53.517Z,6.28
2023-02-13T10:19:38.378Z,7.63
2023-02-13T10:25:24.157Z,5.28
2023-02-13T10:31:00.889Z,6.47
2023-02-13T10:36:34.070Z,10.45
2023-02-13T10:41:58.680Z,7.78
2023-02-13T10:47:59.304Z,6.38
2023-02-13T10:53:25.902Z,7.83
2023-02-13T10:59:05.367Z,7.57
2023-02-13T11:04:25.888Z,5.32
2023-02-13T11:09:49.636Z,3.72
2023-02-13T11:15:20.967Z,2.80
2023-02-13T11:20:44.713Z,2.83
2023-02-13T11:26:32.940Z,2.88
2023-02-13T11:32:15.752Z,3.38
2023-02-13T11:37:37.630Z,3.45
2023-02-13T11:42:58.421Z,4.57
2023-02-13T11:48:23.345Z,5.88
2023-02-13T11:53:44.139Z,6.07
2023-02-13T11:59:05.527Z,3.75
2023-02-13T12:04:26.182Z,3.20
2023-02-13T12:09:55.464Z,2.03
2023-02-13T12:15:20.933Z,3.05
2023-02-13T12:21:05.847Z,1.90
2023-02-13T12:26:33.589Z,1.98
2023-02-13T12:32:20.150Z,2.42
2023-02-13T12:38:15.625Z,2.85
2023-02-13T12:44:02.508Z,2.50
2023-02-13T12:49:44.852Z,2.65
2023-02-13T12:55:41.840Z,3.08
2023-02-13T13:01:05.675Z,4.38
2023-02-13T13:06:34.963Z,2.25
2023-02-13T13:12:07.866Z,3.53
2023-02-13T13:17:44.107Z,2.67
2023-02-13T13:23:12.320Z,2.95
2023-02-13T13:28:37.286Z,3.25
2023-02-13T13:34:02.347Z,2.40
2023-02-13T13:39:44.398Z,2.67
2023-02-13T13:45:35.656Z,3.03
2023-02-13T13:50:57.270Z,2.25
2023-02-13T13:56:18.268Z,1.67
2023-02-13T14:01:39.002Z,2.08
2023-02-13T14:06:59.449Z,4.00
2023-02-13T14:12:29.471Z,2.22
2023-02-13T14:17:52.451Z,3.03
2023-02-13T14:23:28.588Z,3.00
2023-02-13T14:28:49.448Z,2.78
2023-02-13T14:34:15.039Z,3.28
2023-02-13T14:39:36.621Z,2.08
2023-02-13T14:45:00.637Z,1.77
2023-02-13T14:50:26.667Z,2.08
2023-02-13T14:55:53.976Z,3.38
2023-02-13T15:01:24.261Z,2.72
2023-02-13T15:06:46.798Z,3.03
2023-02-13T15:12:32.431Z,2.25
2023-02-13T15:18:00.758Z,2.92
2023-02-13T15:23:28.421Z,2.92
2023-02-13T15:29:29.299Z,3.13
2023-02-13T15:34:53.730Z,2.33
2023-02-13T15:40:35.647Z,3.60
2023-02-13T15:46:01.498Z,2.92
2023-02-13T15:51:29.778Z,2.60
2023-02-13T15:56:52.072Z,5.07
2023-02-13T16:02:46.196Z,3.10
2023-02-13T16:08:30.686Z,4.05
2023-02-13T16:14:18.461Z,6.93
2023-02-13T16:19:51.358Z,5.13
2023-02-13T16:25:28.705Z,4.38
2023-02-13T16:30:57.501Z,6.65
2023-02-13T16:36:27.308Z,5.10
2023-02-13T16:41:48.437Z,4.43
2023-02-13T16:47:22.276Z,4.43
2023-02-13T16:52:43.188Z,4.90
2023-02-13T16:58:05.482Z,4.30
2023-02-13T17:03:26.398Z,4.53
2023-02-13T17:08:47.036Z,4.63
2023-02-13T17:14:07.944Z,4.82
2023-02-13T17:19:31.222Z,4.68
2023-02-13T17:24:51.898Z,7.20
2023-02-13T17:30:21.788Z,5.30
2023-02-13T17:35:42.613Z,4.90
2023-02-13T17:41:03.294Z,9.85
2023-02-13T17:46:24.191Z,8.18
2023-02-13T17:51:46.016Z,4.63
2023-02-13T17:57:06.598Z,6.75
2023-02-13T18:02:27.965Z,5.88
2023-02-13T18:07:49.040Z,8.30
2023-02-13T18:13:10.105Z,9.73
2023-02-13T18:18:30.839Z,10.43
2023-02-13T18:23:53.379Z,9.20
2023-02-13T18:29:14.357Z,7.55
2023-02-13T18:34:37.003Z,8.80
2023-02-13T18:39:58.668Z,8.52
2023-02-13T18:45:19.600Z,8.68
2023-02-13T18:50:42.266Z,7.38
2023-02-13T18:56:05.870Z,7.28
2023-02-13T19:01:27.001Z,6.68
2023-02-13T19:06:47.789Z,7.32
2023-02-13T19:12:08.611Z,5.53
2023-02-13T19:17:29.587Z,6.88
2023-02-13T19:22:50.255Z,7.35
2023-02-13T19:28:11.351Z,8.68
2023-02-13T19:33:32.218Z,8.50
2023-02-13T19:38:58.354Z,7.55
2023-02-13T19:44:19.551Z,9.32
2023-02-13T19:49:40.271Z,9.20
2023-02-13T19:55:01.840Z,9.23
2023-02-13T20:00:24.591Z,8.90
2023-02-13T20:05:45.665Z,8.63
2023-02-13T20:11:13.085Z,8.68
2023-02-13T20:16:35.595Z,10.13
2023-02-13T20:21:56.540Z,9.38
2023-02-13T20:27:17.371Z,9.40
2023-02-13T20:32:38.506Z,9.38
2023-02-13T20:38:00.261Z,9.88
2023-02-13T20:43:21.091Z,9.55
2023-02-13T20:48:43.763Z,11.02
2023-02-13T20:54:05.173Z,10.88
2023-02-13T20:59:26.001Z,11.60
2023-02-13T21:04:47.329Z,10.70
2023-02-13T21:10:08.764Z,11.65
2023-02-13T21:15:30.222Z,10.32
2023-02-13T21:20:51.437Z,11.27
2023-02-13T21:26:17.276Z,9.55
2023-02-13T21:31:44.210Z,10.65
2023-02-13T21:37:05.541Z,9.48
2023-02-13T21:42:26.171Z,10.00
2023-02-13T21:47:47.335Z,9.95
2023-02-13T21:53:08.627Z,12.50
2023-02-13T21:58:33.280Z,12.15
2023-02-13T22:03:59.842Z,13.68
2023-02-13T22:09:22.485Z,10.55
2023-02-13T22:14:43.396Z,14.15
2023-02-13T22:20:04.550Z,13.20
2023-02-13T22:25:25.368Z,12.50
2023-02-13T22:30:46.188Z,14.00
2023-02-13T22:36:07.245Z,12.65
2023-02-13T22:41:28.390Z,13.35
2023-02-13T22:46:49.174Z,11.10
2023-02-13T22:52:10.827Z,14.13
2023-02-13T22:57:31.655Z,12.63
2023-02-13T23:02:52.363Z,13.50
2023-02-13T23:08:13.632Z,12.10
2023-02-13T23:13:34.399Z,11.18
2023-02-13T23:18:56.697Z,14.50
2023-02-13T23:24:17.400Z,13.90
2023-02-13T23:29:38.735Z,14.10
2023-02-13T23:34:59.703Z,12.90
2023-02-13T23:40:20.588Z,17.63
2023-02-13T23:45:41.536Z,13.38
2023-02-13T23:51:02.709Z,12.40
2023-02-13T23:56:24.921Z,14.45
